createdAt,value
2022-11-07T00:02:37.712Z,4.35
2022-11-07T00:07:39.444Z,6.70
2022-11-07T00:12:41.124Z,7.93
2022-11-07T00:17:42.821Z,8.55
2022-11-07T00:22:44.500Z,6.07
2022-11-07T00:27:46.739Z,8.20
2022-11-07T00:32:48.455Z,5.35
2022-11-07T00:37:50.080Z,4.85
2022-11-07T00:42:51.759Z,2.90
2022-11-07T00:47:54.587Z,3.72
2022-11-07T00:52:57.398Z,4.25
2022-11-07T00:57:59.569Z,3.83
2022-11-07T01:03:19.950Z,3.67
2022-11-07T01:08:21.609Z,6.05
2022-11-07T01:13:23.698Z,3.65
2022-11-07T01:18:25.716Z,4.35
2022-11-07T01:23:27.813Z,4.40
2022-11-07T01:28:29.543Z,4.03
2022-11-07T01:33:31.691Z,9.95
2022-11-07T01:38:33.369Z,2.33
2022-11-07T01:43:41.833Z,4.35
2022-11-07T01:48:50.511Z,6.57
2022-11-07T01:53:54.590Z,4.75
2022-11-07T01:58:57.479Z,19.05
2022-11-07T02:04:00.174Z,7.82
2022-11-07T02:09:01.914Z,3.10
2022-11-07T02:14:04.058Z,1.63
2022-11-07T02:19:21.218Z,4.72
2022-11-07T02:24:25.030Z,3.15
2022-11-07T02:29:27.525Z,3.25
2022-11-07T02:34:29.749Z,5.90
2022-11-07T02:39:31.825Z,1.98
2022-11-07T02:44:34.082Z,0.85
2022-11-07T02:49:35.733Z,1.80
2022-11-07T02:54:37.812Z,2.72
2022-11-07T02:59:39.440Z,2.00
2022-11-07T03:04:45.161Z,3.63
2022-11-07T03:09:49.695Z,3.45
2022-11-07T03:14:51.519Z,2.40
2022-11-07T03:19:53.261Z,3.15
2022-11-07T03:24:54.879Z,8.35
2022-11-07T03:29:56.660Z,25.60
2022-11-07T03:34:58.347Z,30.45
2022-11-07T03:40:00.017Z,21.58
2022-11-07T03:45:01.696Z,17.08
2022-11-07T03:50:04.369Z,9.57
2022-11-07T03:55:06.684Z,16.70
2022-11-07T04:00:09.492Z,6.63
2022-11-07T04:05:12.226Z,6.20
2022-11-07T04:10:13.887Z,2.50
2022-11-07T04:15:34.209Z,1.45
2022-11-07T04:20:35.859Z,1.85
2022-11-07T04:25:56.137Z,2.70
2022-11-07T04:30:58.203Z,2.03
2022-11-07T04:36:00.437Z,15.05
2022-11-07T04:41:02.519Z,4.57
2022-11-07T04:46:04.604Z,15.10
2022-11-07T04:51:06.677Z,7.57
2022-11-07T04:56:08.771Z,6.57
2022-11-07T05:01:10.940Z,6.97
2022-11-07T05:06:14.626Z,4.75
2022-11-07T05:11:16.365Z,4.40
2022-11-07T05:16:18.132Z,12.82
2022-11-07T05:21:20.214Z,3.67
2022-11-07T05:26:21.957Z,1.88
2022-11-07T05:31:23.642Z,1.38
2022-11-07T05:36:25.783Z,1.77
2022-11-07T05:41:27.898Z,2.30
2022-11-07T05:46:30.095Z,1.77
2022-11-07T05:51:32.188Z,6.03
2022-11-07T05:56:34.245Z,1.45
2022-11-07T06:01:36.450Z,4.20
2022-11-07T06:06:38.678Z,2.70
2022-11-07T06:11:40.386Z,2.28
2022-11-07T06:16:42.706Z,2.00
2022-11-07T06:21:45.224Z,5.47
2022-11-07T06:26:46.989Z,4.50
2022-11-07T06:31:48.625Z,3.67
2022-11-07T06:37:02.824Z,2.88
2022-11-07T06:42:05.435Z,6.50
2022-11-07T06:47:07.113Z,4.45
2022-11-07T06:52:09.262Z,3.42
2022-11-07T06:57:11.384Z,9.93
2022-11-07T07:02:26.011Z,8.07
2022-11-07T07:07:35.751Z,6.53
2022-11-07T07:12:37.471Z,2.10
2022-11-07T07:17:39.585Z,5.70
2022-11-07T07:22:41.234Z,3.72
2022-11-07T07:27:42.940Z,5.07
2022-11-07T07:32:44.670Z,3.03
2022-11-07T07:37:50.933Z,3.88
2022-11-07T07:42:52.670Z,4.05
2022-11-07T07:48:00.447Z,3.60
2022-11-07T07:53:07.759Z,3.47
2022-11-07T07:58:11.697Z,6.38
2022-11-07T08:03:13.839Z,7.55
2022-11-07T08:08:15.809Z,22.23
2022-11-07T08:13:18.096Z,13.02
2022-11-07T08:18:21.951Z,49.65
2022-11-07T08:23:24.448Z,49.53
2022-11-07T08:28:28.444Z,23.30
2022-11-07T08:33:30.827Z,5.40
2022-11-07T08:38:34.942Z,8.40
2022-11-07T08:43:36.618Z,7.78
2022-11-07T08:48:39.920Z,4.85
2022-11-07T08:53:41.617Z,2.67
2022-11-07T08:58:43.267Z,2.85
2022-11-07T09:03:50.352Z,4.55
2022-11-07T09:08:56.570Z,3.78
2022-11-07T09:13:58.297Z,7.18
2022-11-07T09:18:59.952Z,2.20
2022-11-07T09:24:01.846Z,6.68
2022-11-07T09:29:04.235Z,4.47
2022-11-07T09:34:07.350Z,4.72
2022-11-07T09:39:09.090Z,3.53
2022-11-07T09:44:40.947Z,6.45
2022-11-07T09:49:55.812Z,1.80
2022-11-07T09:55:24.475Z,4.75
2022-11-07T10:00:29.529Z,4.93
2022-11-07T10:05:35.053Z,5.50
2022-11-07T10:10:55.307Z,5.57
2022-11-07T10:16:18.373Z,4.47
2022-11-07T10:21:37.668Z,4.40
2022-11-07T10:26:44.012Z,3.45
2022-11-07T10:32:20.904Z,4.50
2022-11-07T10:37:22.718Z,4.57
2022-11-07T10:42:29.403Z,3.20
2022-11-07T10:47:31.051Z,7.57
2022-11-07T10:52:33.055Z,4.97
2022-11-07T10:57:35.993Z,8.40
2022-11-07T11:02:48.191Z,6.50
2022-11-07T11:07:50.477Z,6.43
2022-11-07T11:12:52.452Z,5.15
2022-11-07T11:18:06.241Z,4.53
2022-11-07T11:23:19.306Z,4.78
2022-11-07T11:28:27.447Z,2.47
2022-11-07T11:33:39.291Z,3.95
2022-11-07T11:38:42.335Z,2.70
2022-11-07T11:44:12.818Z,3.65
2022-11-07T11:49:23.154Z,6.00
2022-11-07T11:54:25.479Z,7.82
2022-11-07T11:59:48.835Z,9.52
2022-11-07T12:05:17.549Z,4.13
2022-11-07T12:10:39.512Z,3.78
2022-11-07T12:21:09.577Z,4.75
2022-11-07T12:26:21.184Z,6.90
2022-11-07T12:31:33.343Z,4.22
2022-11-07T12:37:13.658Z,5.00
2022-11-07T12:42:28.351Z,3.78
2022-11-07T12:47:41.936Z,5.13
2022-11-07T12:53:07.989Z,5.82
2022-11-07T12:58:24.372Z,6.15
2022-11-07T13:03:35.230Z,3.50
2022-11-07T13:09:07.790Z,3.20
2022-11-07T13:19:32.950Z,5.53
2022-11-07T13:24:49.428Z,2.97
2022-11-07T13:29:51.877Z,3.38
2022-11-07T13:35:00.451Z,3.60
2022-11-07T13:40:07.094Z,3.50
2022-11-07T13:45:38.478Z,3.58
2022-11-07T13:50:43.723Z,6.18
2022-11-07T13:55:52.526Z,4.50
2022-11-07T14:00:54.284Z,12.70
2022-11-07T14:05:57.024Z,5.40
2022-11-07T14:10:59.320Z,5.18
2022-11-07T14:16:19.485Z,4.50
2022-11-07T14:21:27.926Z,4.68
2022-11-07T14:26:32.786Z,3.35
2022-11-07T14:31:37.214Z,4.07
2022-11-07T14:36:48.317Z,7.38
2022-11-07T14:41:51.345Z,6.18
2022-11-07T14:46:54.013Z,6.68
2022-11-07T14:51:56.276Z,3.45
2022-11-07T14:56:58.893Z,4.25
2022-11-07T15:02:06.458Z,4.53
2022-11-07T15:07:24.729Z,3.53
2022-11-07T15:12:29.843Z,7.13
2022-11-07T15:17:33.451Z,8.73
2022-11-07T15:22:39.304Z,9.55
2022-11-07T15:27:41.518Z,9.45
2022-11-07T15:32:43.423Z,5.47
2022-11-07T15:37:56.333Z,4.05
2022-11-07T15:42:58.363Z,4.82
2022-11-07T15:48:00.110Z,3.95
2022-11-07T15:53:01.800Z,7.40
2022-11-07T15:58:03.553Z,10.63
2022-11-07T16:03:05.262Z,4.90
2022-11-07T16:08:09.123Z,6.38
2022-11-07T16:13:10.865Z,7.95
2022-11-07T16:18:16.951Z,3.30
2022-11-07T16:23:19.435Z,11.07
2022-11-07T16:28:25.578Z,6.40
2022-11-07T16:33:28.461Z,11.70
2022-11-07T16:38:35.382Z,13.57
2022-11-07T16:43:38.060Z,6.78
2022-11-07T16:48:40.296Z,39.03
2022-11-07T16:53:43.125Z,29.27
2022-11-07T16:58:44.875Z,38.88
2022-11-07T17:03:46.631Z,10.93
2022-11-07T17:08:49.055Z,8.02
2022-11-07T17:13:50.777Z,5.40
2022-11-07T17:18:53.028Z,31.00
2022-11-07T17:23:56.466Z,20.15
2022-11-07T17:28:59.610Z,11.55
2022-11-07T17:34:01.292Z,10.55
2022-11-07T17:39:08.048Z,4.75
2022-11-07T17:44:10.609Z,41.13
2022-11-07T17:49:14.828Z,8.55
2022-11-07T17:54:16.572Z,16.00
2022-11-07T18:02:35.476Z,6.75
2022-11-07T18:07:40.755Z,3.72
2022-11-07T18:12:43.326Z,8.45
2022-11-07T18:17:45.131Z,5.60
2022-11-07T18:22:46.836Z,9.77
2022-11-07T18:27:48.776Z,9.70
2022-11-07T18:32:51.029Z,22.20
2022-11-07T18:37:52.749Z,34.47
2022-11-07T18:42:54.428Z,14.45
2022-11-07T18:47:56.078Z,16.80
2022-11-07T18:52:57.809Z,21.40
2022-11-07T18:57:59.499Z,13.75
2022-11-07T19:03:01.289Z,16.85
2022-11-07T19:08:03.081Z,13.05
2022-11-07T19:13:08.088Z,8.70
2022-11-07T19:18:10.198Z,24.75
2022-11-07T19:23:12.970Z,26.50
2022-11-07T19:28:15.456Z,23.88
2022-11-07T19:33:17.517Z,18.45
2022-11-07T19:38:19.504Z,26.27
2022-11-07T19:43:21.360Z,15.95
2022-11-07T19:48:23.079Z,7.18
2022-11-07T19:53:24.965Z,9.35
2022-11-07T19:58:26.659Z,5.57
2022-11-07T20:03:28.412Z,15.20
2022-11-07T20:08:30.175Z,14.27
2022-11-07T20:13:31.845Z,16.33
2022-11-07T20:18:37.773Z,24.38
2022-11-07T20:23:43.146Z,33.35
2022-11-07T20:28:46.617Z,28.42
2022-11-07T20:33:48.877Z,19.90
2022-11-07T20:38:50.531Z,13.05
2022-11-07T20:44:03.778Z,17.70
2022-11-07T20:49:07.206Z,16.45
2022-11-07T20:54:13.237Z,10.68
2022-11-07T20:59:14.995Z,27.35
2022-11-07T21:04:17.586Z,23.75
2022-11-07T21:09:21.064Z,18.35
2022-11-07T21:14:22.823Z,12.98
2022-11-07T21:19:24.526Z,10.30
2022-11-07T21:24:30.637Z,18.52
2022-11-07T21:29:33.405Z,6.93
2022-11-07T21:34:37.309Z,5.47
2022-11-07T21:39:38.986Z,9.32
2022-11-07T21:44:40.647Z,7.57
2022-11-07T21:49:42.718Z,22.77
2022-11-07T21:54:44.956Z,16.23
2022-11-07T21:59:47.150Z,9.25
2022-11-07T22:04:49.262Z,11.48
2022-11-07T22:09:51.399Z,10.98
2022-11-07T22:14:53.118Z,9.57
2022-11-07T22:19:54.921Z,10.93
2022-11-07T22:24:56.603Z,4.15
2022-11-07T22:29:58.269Z,3.50
2022-11-07T22:35:01.673Z,7.68
2022-11-07T22:40:07.515Z,5.78
2022-11-07T22:45:09.452Z,10.40
2022-11-07T22:50:11.181Z,5.40
2022-11-07T22:55:12.930Z,4.68
2022-11-07T23:00:21.402Z,6.28
2022-11-07T23:05:23.386Z,9.98
2022-11-07T23:10:25.066Z,9.90
2022-11-07T23:15:27.224Z,14.23
2022-11-07T23:20:47.944Z,13.75
2022-11-07T23:25:50.040Z,8.27
2022-11-07T23:30:52.672Z,7.43
2022-11-07T23:36:01.720Z,6.22
2022-11-07T23:41:05.357Z,3.45
2022-11-07T23:46:26.102Z,3.20
2022-11-07T23:51:28.194Z,8.52
2022-11-07T23:56:30.505Z,5.47
